createdAt,value
2017-12-16T00:00:56.519Z,7.71
2017-12-16T00:02:07.517Z,7.74
2017-12-16T00:03:17.560Z,7.73
2017-12-16T00:04:27.484Z,7.8
2017-12-16T00:05:37.647Z,7.75
2017-12-16T00:06:48.141Z,7.75
2017-12-16T00:07:57.900Z,7.78
2017-12-16T00:09:07.760Z,7.78
2017-12-16T00:10:18.531Z,7.77
2017-12-16T00:11:28.415Z,7.75
2017-12-16T00:12:38.308Z,7.86
2017-12-16T00:13:48.646Z,7.85
2017-12-16T00:14:59.053Z,7.85
2017-12-16T00:16:10.194Z,7.91
2017-12-16T00:17:21.316Z,7.88
2017-12-16T00:18:32.867Z,7.83
2017-12-16T00:19:42.690Z,7.82
2017-12-16T00:20:52.740Z,7.91
2017-12-16T00:22:02.890Z,7.8
2017-12-16T00:23:12.685Z,7.91
2017-12-16T00:24:22.510Z,7.86
2017-12-16T00:25:33.203Z,7.85
2017-12-16T00:26:43.267Z,7.86
2017-12-16T00:27:53.063Z,7.73
2017-12-16T00:29:02.852Z,7.7
2017-12-16T00:30:12.961Z,7.67
2017-12-16T00:31:23.029Z,7.7
2017-12-16T00:32:33.091Z,7.63
2017-12-16T00:33:43.165Z,7.73
2017-12-16T00:34:53.227Z,7.59
2017-12-16T00:36:03.288Z,7.56
2017-12-16T00:37:13.348Z,7.54
2017-12-16T00:38:23.142Z,7.52
2017-12-16T00:39:33.214Z,7.68
2017-12-16T00:40:43.272Z,7.54
2017-12-16T00:41:53.324Z,7.47
2017-12-16T00:43:03.117Z,7.48
2017-12-16T00:44:13.167Z,7.55
2017-12-16T00:45:22.987Z,7.48
2017-12-16T00:46:32.785Z,7.51
2017-12-16T00:47:42.594Z,7.54
2017-12-16T00:48:52.402Z,7.51
2017-12-16T00:50:02.450Z,7.39
2017-12-16T00:51:12.243Z,7.47
2017-12-16T00:52:22.315Z,7.48
2017-12-16T00:53:32.420Z,7.49
2017-12-16T00:54:42.468Z,7.45
2017-12-16T00:55:52.260Z,7.47
2017-12-16T00:57:02.047Z,7.37
2017-12-16T00:58:12.099Z,7.49
2017-12-16T00:59:21.966Z,7.48
2017-12-16T01:00:31.757Z,7.41
2017-12-16T01:01:43.037Z,7.4
2017-12-16T01:02:53.090Z,7.37
2017-12-16T01:04:03.155Z,7.52
2017-12-16T01:05:12.958Z,7.45
2017-12-16T01:06:23.063Z,7.48
2017-12-16T01:07:32.909Z,7.47
2017-12-16T01:08:42.440Z,7.52
2017-12-16T01:09:52.494Z,7.52
2017-12-16T01:11:02.281Z,7.54
2017-12-16T01:12:12.347Z,7.44
2017-12-16T01:13:21.897Z,7.34
2017-12-16T01:14:32.459Z,7.33
2017-12-16T01:15:42.524Z,7.22
2017-12-16T01:16:52.589Z,7.22
2017-12-16T01:18:02.645Z,7.22
2017-12-16T01:19:12.698Z,7.22
2017-12-16T01:20:22.760Z,7.29
2017-12-16T01:21:32.809Z,7.16
2017-12-16T01:22:42.870Z,7.15
2017-12-16T01:23:53.678Z,7.21
2017-12-16T01:25:03.741Z,7.12
2017-12-16T01:26:13.799Z,7.18
2017-12-16T01:27:23.841Z,7.15
2017-12-16T01:28:33.657Z,7.12
2017-12-16T01:29:43.725Z,7.11
2017-12-16T01:30:53.777Z,7.21
2017-12-16T01:32:03.838Z,7.21
2017-12-16T01:33:13.901Z,7.22
2017-12-16T01:34:23.455Z,7.16
2017-12-16T01:35:33.520Z,7.19
2017-12-16T01:36:43.334Z,7.18
2017-12-16T01:37:53.121Z,7.16
2017-12-16T01:39:02.908Z,7.23
2017-12-16T01:40:13.031Z,7.16
2017-12-16T01:41:23.073Z,7.12
2017-12-16T01:42:32.864Z,7.11
2017-12-16T01:43:42.664Z,7.13
2017-12-16T01:44:52.728Z,7.08
2017-12-16T01:46:02.780Z,7.08
2017-12-16T01:47:12.563Z,7.15
2017-12-16T01:48:22.610Z,7.15
2017-12-16T01:49:32.411Z,7.08
2017-12-16T01:50:42.511Z,7.09
2017-12-16T01:51:52.632Z,6.97
2017-12-16T01:53:02.428Z,7.05
2017-12-16T01:54:12.212Z,7.01
2017-12-16T01:55:21.989Z,7.01
2017-12-16T01:56:32.057Z,6.95
2017-12-16T01:57:42.182Z,6.95
2017-12-16T01:58:52.239Z,6.98
2017-12-16T02:00:02.291Z,7
2017-12-16T02:01:12.342Z,6.97
2017-12-16T02:02:22.394Z,6.95
2017-12-16T02:03:32.449Z,6.95
2017-12-16T02:04:42.244Z,7.03
2017-12-16T02:05:52.312Z,7.03
2017-12-16T02:07:02.105Z,7.05
2017-12-16T02:08:11.633Z,7
2017-12-16T02:09:21.480Z,7.04
2017-12-16T02:10:31.537Z,6.98
2017-12-16T02:11:41.579Z,6.97
2017-12-16T02:12:51.376Z,6.9
2017-12-16T02:14:00.648Z,6.95
2017-12-16T02:15:10.800Z,7.01
2017-12-16T02:16:20.857Z,6.95
2017-12-16T02:17:30.652Z,6.98
2017-12-16T02:18:40.448Z,7.01
2017-12-16T02:19:50.246Z,6.97
2017-12-16T02:21:00.311Z,6.93
2017-12-16T02:22:10.099Z,6.88
2017-12-16T02:23:19.883Z,6.83
2017-12-16T02:24:29.683Z,6.9
2017-12-16T02:25:39.735Z,6.86
2017-12-16T02:26:49.788Z,6.82
2017-12-16T02:27:59.849Z,6.8
2017-12-16T02:29:09.904Z,6.83
2017-12-16T02:30:19.953Z,6.82
2017-12-16T02:31:30.008Z,6.75
2017-12-16T02:32:40.254Z,6.79
2017-12-16T02:33:50.322Z,6.82
2017-12-16T02:34:59.843Z,6.79
2017-12-16T02:36:09.930Z,6.79
2017-12-16T02:37:20.043Z,6.82
2017-12-16T02:38:29.789Z,6.73
2017-12-16T02:39:39.045Z,6.8
2017-12-16T02:40:48.582Z,6.8
2017-12-16T02:41:58.637Z,6.76
2017-12-16T02:43:08.172Z,6.79
2017-12-16T02:44:18.223Z,6.83
2017-12-16T02:45:28.118Z,6.73
2017-12-16T02:46:38.159Z,6.82
2017-12-16T02:47:48.219Z,6.75
2017-12-16T02:48:58.040Z,6.7
2017-12-16T02:50:08.095Z,6.67
2017-12-16T02:51:17.880Z,6.78
2017-12-16T02:52:27.946Z,6.76
2017-12-16T02:53:37.733Z,6.78
2017-12-16T02:54:47.526Z,6.79
2017-12-16T02:55:57.384Z,6.8
2017-12-16T02:57:06.903Z,6.73
2017-12-16T02:58:16.431Z,6.73
2017-12-16T02:59:26.487Z,6.8
2017-12-16T03:00:36.546Z,6.83
2017-12-16T03:01:46.710Z,6.8
2017-12-16T03:02:56.480Z,6.8
2017-12-16T03:34:28.154Z,4.2
2017-12-16T03:35:38.199Z,4.29
2017-12-16T03:36:47.970Z,4.28
2017-12-16T03:37:57.561Z,4.26
2017-12-16T03:39:07.345Z,4.28
2017-12-16T03:40:16.912Z,4.36
2017-12-16T03:41:26.708Z,4.46
2017-12-16T03:42:36.511Z,4.61
2017-12-16T03:43:46.553Z,4.75
2017-12-16T03:44:56.591Z,4.92
2017-12-16T03:46:06.439Z,5.1
2017-12-16T03:47:16.500Z,5.15
2017-12-16T03:48:26.548Z,5.41
2017-12-16T03:49:36.625Z,5.42
2017-12-16T03:50:46.425Z,5.57
2017-12-16T03:51:56.527Z,5.73
2017-12-16T03:53:06.576Z,5.77
2017-12-16T03:54:16.614Z,5.87
2017-12-16T03:55:26.405Z,5.96
2017-12-16T03:56:36.458Z,5.99
2017-12-16T03:57:46.254Z,6.14
2017-12-16T03:58:56.309Z,6.18
2017-12-16T04:00:06.362Z,6.26
2017-12-16T04:01:16.422Z,6.24
2017-12-16T04:02:26.484Z,6.42
2017-12-16T04:03:36.576Z,6.42
2017-12-16T04:04:46.634Z,6.4
2017-12-16T04:05:56.422Z,6.43
2017-12-16T04:07:06.476Z,6.54
2017-12-16T04:08:16.018Z,6.52
2017-12-16T04:09:25.874Z,6.61
2017-12-16T04:10:35.918Z,6.65
2017-12-16T04:11:45.984Z,6.7
2017-12-16T04:12:56.036Z,6.73
2017-12-16T04:14:05.594Z,6.68
2017-12-16T04:15:15.376Z,6.83
2017-12-16T04:16:25.426Z,6.86
2017-12-16T04:17:35.488Z,6.85
2017-12-16T04:18:45.285Z,6.85
2017-12-16T04:19:54.821Z,6.9
2017-12-16T04:21:04.918Z,6.93
2017-12-16T04:22:14.710Z,6.93
2017-12-16T04:23:24.821Z,7.03
2017-12-16T04:24:34.607Z,6.91
2017-12-16T04:25:44.128Z,6.97
2017-12-16T04:26:54.237Z,7
2017-12-16T04:28:04.298Z,7.03
2017-12-16T04:29:14.089Z,6.98
2017-12-16T04:30:24.131Z,7.01
2017-12-16T04:31:33.917Z,6.97
2017-12-16T04:32:43.497Z,6.95
2017-12-16T04:33:53.283Z,6.97
2017-12-16T04:35:02.554Z,7.03
2017-12-16T04:36:12.347Z,7.09
2017-12-16T04:37:22.131Z,7.03
2017-12-16T04:38:32.193Z,7.04
2017-12-16T04:39:41.981Z,6.94
2017-12-16T04:40:51.764Z,7.11
2017-12-16T04:42:01.554Z,7.08
2017-12-16T04:43:11.349Z,7.04
2017-12-16T04:44:21.147Z,7.01
2017-12-16T04:45:31.200Z,7.05
2017-12-16T04:46:41.005Z,7.09
2017-12-16T04:47:50.851Z,7.09
2017-12-16T04:49:00.644Z,7.09
2017-12-16T04:50:10.477Z,7.13
2017-12-16T04:51:20.285Z,7.09
2017-12-16T04:52:30.068Z,7
2017-12-16T04:53:40.112Z,7.08
2017-12-16T04:54:50.170Z,7.03
2017-12-16T04:55:59.974Z,7
2017-12-16T04:57:10.028Z,7.04
2017-12-16T04:58:20.089Z,6.98
2017-12-16T04:59:29.875Z,6.94
2017-12-16T05:00:39.921Z,6.98
2017-12-16T05:01:49.975Z,7.03
2017-12-16T05:03:00.018Z,6.93
2017-12-16T05:04:10.093Z,6.97
2017-12-16T05:05:19.879Z,6.98
2017-12-16T05:06:29.946Z,6.94
2017-12-16T05:07:40.002Z,6.91
2017-12-16T05:08:50.072Z,6.82
2017-12-16T05:09:59.931Z,6.8
2017-12-16T05:11:10.003Z,6.88
2017-12-16T05:12:20.060Z,6.82
2017-12-16T05:13:30.115Z,6.78
2017-12-16T05:14:39.895Z,6.67
2017-12-16T05:15:49.700Z,6.75
2017-12-16T05:16:59.758Z,6.82
2017-12-16T05:18:09.818Z,6.78
2017-12-16T05:19:19.647Z,6.8
2017-12-16T05:20:29.428Z,6.76
2017-12-16T05:21:39.239Z,6.73
2017-12-16T05:22:49.290Z,6.79
2017-12-16T05:23:59.073Z,6.76
2017-12-16T05:25:08.868Z,6.76
2017-12-16T05:26:18.668Z,6.76
2017-12-16T05:27:28.455Z,6.79
2017-12-16T05:28:38.512Z,6.79
2017-12-16T05:29:48.575Z,6.73
2017-12-16T05:30:58.104Z,6.83
2017-12-16T05:32:08.175Z,6.78
2017-12-16T05:33:18.224Z,6.8
2017-12-16T05:34:28.016Z,6.79
2017-12-16T05:35:38.066Z,6.64
2017-12-16T05:36:48.130Z,6.68
2017-12-16T05:37:58.171Z,6.79
2017-12-16T05:39:08.230Z,6.75
2017-12-16T05:40:18.287Z,6.73
2017-12-16T05:41:28.339Z,6.64
2017-12-16T05:42:37.875Z,6.68
2017-12-16T05:43:47.912Z,6.67
2017-12-16T05:44:57.449Z,6.7
2017-12-16T05:46:07.227Z,6.7
2017-12-16T05:47:17.262Z,6.68
2017-12-16T05:48:26.784Z,6.67
2017-12-16T05:49:36.836Z,6.65
2017-12-16T05:50:46.615Z,6.6
2017-12-16T05:51:56.675Z,6.65
2017-12-16T05:53:06.712Z,6.58
2017-12-16T05:54:17.605Z,6.55
2017-12-16T05:55:27.657Z,6.58
2017-12-16T05:56:37.183Z,6.62
2017-12-16T05:57:46.969Z,6.65
2017-12-16T05:58:57.010Z,6.67
2017-12-16T06:00:06.530Z,6.57
2017-12-16T06:01:16.582Z,6.6
2017-12-16T06:02:26.636Z,6.64
2017-12-16T06:03:36.423Z,6.61
2017-12-16T06:04:46.474Z,6.51
2017-12-16T06:05:56.575Z,6.55
2017-12-16T06:07:06.637Z,6.52
2017-12-16T06:08:16.162Z,6.65
2017-12-16T06:09:26.221Z,6.6
2017-12-16T06:10:36.260Z,6.65
2017-12-16T06:11:46.360Z,6.55
2017-12-16T06:12:56.407Z,6.57
2017-12-16T06:14:06.208Z,6.51
2017-12-16T06:15:16.264Z,6.62
2017-12-16T06:16:26.373Z,6.54
2017-12-16T06:17:36.427Z,6.55
2017-12-16T06:18:46.484Z,6.58
2017-12-16T06:19:56.619Z,6.54
2017-12-16T06:21:06.669Z,6.55
2017-12-16T06:22:16.467Z,6.54
2017-12-16T06:23:26.264Z,6.55
2017-12-16T06:24:36.308Z,6.49
2017-12-16T06:25:46.352Z,6.46
2017-12-16T06:26:56.404Z,6.52
2017-12-16T06:28:06.212Z,6.43
2017-12-16T06:29:16.331Z,6.46
2017-12-16T06:30:26.400Z,6.51
2017-12-16T06:31:36.444Z,6.44
2017-12-16T06:32:46.238Z,6.43
2017-12-16T06:33:56.303Z,6.46
2017-12-16T06:35:06.080Z,6.51
2017-12-16T06:36:16.170Z,6.43
2017-12-16T06:37:26.223Z,6.4
2017-12-16T06:38:36.266Z,6.49
2017-12-16T06:39:45.826Z,6.4
2017-12-16T06:40:55.871Z,6.42
2017-12-16T06:42:05.642Z,6.47
2017-12-16T06:43:15.679Z,6.37
2017-12-16T06:44:25.725Z,6.44
2017-12-16T06:45:35.770Z,6.44
2017-12-16T06:46:45.608Z,6.49
2017-12-16T06:47:55.400Z,6.52
2017-12-16T06:49:04.942Z,6.43
2017-12-16T06:50:14.997Z,6.49
2017-12-16T06:51:24.787Z,6.51
2017-12-16T06:52:34.654Z,6.55
2017-12-16T06:53:43.940Z,6.51
2017-12-16T06:54:53.978Z,6.52
2017-12-16T06:56:04.041Z,6.46
2017-12-16T06:57:14.103Z,6.44
2017-12-16T06:58:23.636Z,6.57
2017-12-16T06:59:33.712Z,6.54
2017-12-16T07:00:43.781Z,6.52
2017-12-16T07:01:53.581Z,6.58
2017-12-16T07:03:04.634Z,6.55
2017-12-16T07:04:14.697Z,6.55
2017-12-16T07:05:24.215Z,6.64
2017-12-16T07:06:34.007Z,6.62
2017-12-16T07:07:43.800Z,6.76
2017-12-16T07:08:53.916Z,6.75
2017-12-16T07:10:03.485Z,6.79
2017-12-16T07:11:13.535Z,6.68
2017-12-16T07:12:23.332Z,6.78
2017-12-16T07:13:33.376Z,6.75
2017-12-16T07:14:42.648Z,6.76
2017-12-16T07:15:52.537Z,6.79
2017-12-16T07:17:02.586Z,6.76
2017-12-16T07:18:12.639Z,6.68
2017-12-16T07:19:22.686Z,6.68
2017-12-16T07:20:32.733Z,6.79
2017-12-16T07:21:42.766Z,6.78
2017-12-16T07:22:51.770Z,6.8
2017-12-16T07:24:01.683Z,6.86
2017-12-16T07:25:11.201Z,6.94
2017-12-16T07:26:21.252Z,6.95
2017-12-16T07:27:31.090Z,6.98
2017-12-16T07:28:41.156Z,7
2017-12-16T07:29:51.218Z,7.05
2017-12-16T07:31:01.140Z,7.01
2017-12-16T07:32:11.715Z,7.13
2017-12-16T07:33:21.548Z,7.12
2017-12-16T07:34:31.625Z,7.16
2017-12-16T07:35:41.427Z,7.22
2017-12-16T07:36:51.227Z,7.21
2017-12-16T07:38:01.297Z,7.22
2017-12-16T07:39:11.145Z,7.22
2017-12-16T07:40:21.195Z,7.37
2017-12-16T07:41:30.980Z,7.45
2017-12-16T07:42:40.521Z,7.47
2017-12-16T07:43:50.307Z,7.47
2017-12-16T07:44:59.845Z,7.48
2017-12-16T07:46:09.639Z,7.49
2017-12-16T07:47:19.684Z,7.55
2017-12-16T07:48:29.470Z,7.58
2017-12-16T07:49:39.095Z,7.67
2017-12-16T07:50:48.625Z,7.63
2017-12-16T07:51:58.412Z,7.73
2017-12-16T07:53:08.471Z,7.7
2017-12-16T07:54:18.282Z,7.73
2017-12-16T07:55:28.401Z,7.86
2017-12-16T07:56:38.467Z,7.89
2017-12-16T07:57:48.538Z,7.91
2017-12-16T07:58:58.066Z,7.96
2017-12-16T08:00:08.126Z,8.01
2017-12-16T08:01:17.703Z,7.99
2017-12-16T08:02:27.510Z,8.06
2017-12-16T08:03:37.299Z,8.01
2017-12-16T08:04:47.100Z,8.01
2017-12-16T08:05:56.905Z,8.01
2017-12-16T08:07:06.948Z,8.06
2017-12-16T08:08:17.247Z,8.11
2017-12-16T08:09:27.056Z,8.06
2017-12-16T08:10:36.873Z,8.06
2017-12-16T08:11:46.656Z,7.93
2017-12-16T08:12:56.717Z,8.09
2017-12-16T08:14:06.789Z,7.92
2017-12-16T08:15:16.054Z,7.96
2017-12-16T08:16:26.107Z,8.03
2017-12-16T08:17:36.274Z,7.93
2017-12-16T08:18:46.320Z,7.91
2017-12-16T08:19:56.104Z,7.92
2017-12-16T08:21:06.153Z,7.91
2017-12-16T08:22:15.966Z,7.91
2017-12-16T08:23:25.503Z,7.88
2017-12-16T08:24:35.296Z,7.93
2017-12-16T08:25:45.108Z,7.92
2017-12-16T08:26:55.538Z,7.92
2017-12-16T08:28:05.340Z,8.06
2017-12-16T08:29:15.148Z,8.09
2017-12-16T08:30:25.255Z,8.21
2017-12-16T08:31:35.312Z,8.29
2017-12-16T08:32:45.111Z,8.43
2017-12-16T08:33:55.216Z,8.43
2017-12-16T08:35:05.019Z,8.58
2017-12-16T08:36:15.088Z,8.62
2017-12-16T08:37:25.152Z,8.69
2017-12-16T08:38:35.215Z,8.79
2017-12-16T08:39:45.020Z,8.76
2017-12-16T08:40:54.810Z,8.95
2017-12-16T08:42:04.605Z,9.05
2017-12-16T08:43:14.717Z,9.16
2017-12-16T08:44:24.245Z,9.2
2017-12-16T08:45:34.055Z,9.09
2017-12-16T08:46:43.838Z,9.17
2017-12-16T08:47:53.974Z,9.26
2017-12-16T08:49:03.241Z,9.29
2017-12-16T08:50:13.313Z,9.27
2017-12-16T08:51:23.365Z,9.24
2017-12-16T08:52:33.161Z,9.27
2017-12-16T08:53:42.949Z,9.44
2017-12-16T08:54:52.769Z,9.56
2017-12-16T08:56:02.562Z,9.55
2017-12-16T08:57:12.623Z,9.66
2017-12-16T08:58:22.427Z,9.59
2017-12-16T08:59:32.486Z,9.6
2017-12-16T09:00:42.319Z,9.72
2017-12-16T09:01:52.366Z,9.74
2017-12-16T09:03:02.433Z,9.84
2017-12-16T09:04:12.530Z,9.85
2017-12-16T09:05:22.643Z,9.77
2017-12-16T09:06:32.722Z,9.81
2017-12-16T09:07:42.811Z,9.84
2017-12-16T09:08:52.600Z,9.85
2017-12-16T09:10:02.667Z,9.74
2017-12-16T09:11:12.464Z,9.81
2017-12-16T09:12:23.525Z,9.75
2017-12-16T09:13:33.314Z,9.71
2017-12-16T09:14:43.386Z,9.75
2017-12-16T09:15:53.443Z,9.8
2017-12-16T09:17:03.551Z,9.77
2017-12-16T09:18:13.604Z,9.77
2017-12-16T09:19:23.134Z,9.84
2017-12-16T09:20:32.418Z,9.89
2017-12-16T09:21:42.498Z,9.88
2017-12-16T09:22:52.552Z,9.82
2017-12-16T09:24:02.634Z,9.84
2017-12-16T09:25:12.190Z,10.02
2017-12-16T09:26:21.984Z,10
2017-12-16T09:27:31.805Z,10.13
2017-12-16T09:28:42.037Z,10.11
2017-12-16T09:29:52.082Z,10.07
2017-12-16T09:31:02.167Z,9.95
2017-12-16T09:32:12.247Z,10
2017-12-16T09:33:22.043Z,9.99
2017-12-16T09:34:32.134Z,10
2017-12-16T09:35:42.197Z,10.14
2017-12-16T09:36:53.492Z,10.21
2017-12-16T09:38:03.573Z,10.28
2017-12-16T09:39:13.370Z,10.32
2017-12-16T09:40:23.480Z,10.44
2017-12-16T09:41:33.300Z,10.39
2017-12-16T09:42:43.098Z,10.39
2017-12-16T09:43:52.368Z,10.38
2017-12-16T09:45:02.489Z,10.36
2017-12-16T09:46:12.603Z,10.44
2017-12-16T09:47:22.400Z,10.36
2017-12-16T09:48:32.201Z,10.39
2017-12-16T09:49:42.272Z,10.36
2017-12-16T09:50:52.339Z,10.39
2017-12-16T09:52:02.455Z,10.44
2017-12-16T09:53:12.257Z,10.38
2017-12-16T09:54:22.320Z,10.44
2017-12-16T09:55:33.250Z,10.38
2017-12-16T09:56:42.777Z,10.38
2017-12-16T09:57:52.823Z,10.36
2017-12-16T09:59:02.116Z,10.36
2017-12-16T10:00:11.931Z,10.47
2017-12-16T10:01:21.739Z,10.42
2017-12-16T10:02:31.795Z,10.42
2017-12-16T10:03:41.627Z,10.28
2017-12-16T10:04:51.420Z,10.35
2017-12-16T10:06:01.202Z,10.31
2017-12-16T10:07:11.263Z,10.35
2017-12-16T10:08:21.332Z,10.38
2017-12-16T10:09:31.404Z,10.47
2017-12-16T10:10:41.513Z,10.46
2017-12-16T10:11:52.016Z,10.65
2017-12-16T10:13:02.060Z,10.73
2017-12-16T10:14:11.866Z,10.72
2017-12-16T10:15:21.944Z,10.76
2017-12-16T10:16:32.052Z,10.75
2017-12-16T10:17:42.115Z,10.85
2017-12-16T10:18:52.181Z,10.75
2017-12-16T10:20:02.242Z,10.94
2017-12-16T10:21:12.340Z,10.85
2017-12-16T10:22:22.195Z,10.77
2017-12-16T10:23:32.256Z,10.66
2017-12-16T10:24:42.365Z,10.63
2017-12-16T10:25:52.150Z,10.61
2017-12-16T10:27:02.202Z,10.65
2017-12-16T10:28:12.341Z,10.67
2017-12-16T10:29:22.387Z,10.79
2017-12-16T10:30:32.425Z,10.79
2017-12-16T10:31:42.492Z,10.87
2017-12-16T10:32:52.548Z,10.8
2017-12-16T10:34:02.659Z,10.83
2017-12-16T10:35:12.787Z,10.79
2017-12-16T10:36:22.855Z,10.76
2017-12-16T10:37:32.644Z,10.77
2017-12-16T10:38:42.991Z,10.79
2017-12-16T10:39:52.845Z,10.8
2017-12-16T10:41:02.649Z,10.8
2017-12-16T10:42:12.711Z,10.8
2017-12-16T10:43:22.253Z,10.77
2017-12-16T10:44:32.041Z,10.76
2017-12-16T10:45:41.911Z,10.77
2017-12-16T10:46:51.969Z,10.65
2017-12-16T10:48:01.778Z,10.73
2017-12-16T10:49:11.844Z,10.76
2017-12-16T10:50:21.643Z,10.83
2017-12-16T10:51:31.786Z,10.84
2017-12-16T10:52:41.982Z,10.84
2017-12-16T10:53:52.084Z,10.79
2017-12-16T10:55:01.991Z,10.79
2017-12-16T10:56:12.050Z,10.76
2017-12-16T10:57:22.125Z,10.73
2017-12-16T10:58:31.670Z,10.66
2017-12-16T10:59:42.334Z,10.59
2017-12-16T11:00:52.400Z,10.57
2017-12-16T11:02:02.449Z,10.54
2017-12-16T11:03:11.855Z,10.38
2017-12-16T11:04:21.653Z,10.42
2017-12-16T11:05:31.708Z,10.39
2017-12-16T11:06:41.538Z,10.42
2017-12-16T11:07:51.611Z,10.41
2017-12-16T11:09:01.716Z,10.42
2017-12-16T11:10:11.803Z,10.55
2017-12-16T11:11:21.851Z,10.58
2017-12-16T11:12:31.660Z,10.61
2017-12-16T11:13:41.472Z,10.65
2017-12-16T11:14:51.516Z,10.72
2017-12-16T11:16:01.579Z,10.76
2017-12-16T11:17:11.374Z,10.65
2017-12-16T11:18:21.420Z,10.67
2017-12-16T11:19:31.220Z,10.63
2017-12-16T11:20:41.061Z,10.52
2017-12-16T11:21:51.124Z,10.46
2017-12-16T11:23:00.929Z,10.35
2017-12-16T11:24:11.160Z,10.26
2017-12-16T11:25:20.966Z,10.28
2017-12-16T11:26:31.088Z,10.29
2017-12-16T11:27:41.149Z,10.11
2017-12-16T11:28:51.211Z,10.11
2017-12-16T11:30:01.312Z,10.17
2017-12-16T11:31:11.371Z,10.11
2017-12-16T11:32:21.169Z,10.11
2017-12-16T11:33:30.974Z,10.13
2017-12-16T11:34:41.033Z,10.15
2017-12-16T11:35:51.096Z,10.03
2017-12-16T11:37:01.160Z,10.11
2017-12-16T11:38:10.970Z,10.03
2017-12-16T11:39:21.925Z,10.07
2017-12-16T11:40:32.008Z,10.1
2017-12-16T11:41:41.970Z,10.08
2017-12-16T11:42:52.327Z,10.14
2017-12-16T11:44:02.245Z,10.18
2017-12-16T11:45:12.562Z,10.21
2017-12-16T11:46:23.876Z,10.31
2017-12-16T11:47:33.966Z,10.39
2017-12-16T11:48:44.272Z,10.35
2017-12-16T11:49:53.785Z,10.42
2017-12-16T11:51:03.840Z,10.41
2017-12-16T11:52:13.626Z,10.52
2017-12-16T11:53:23.696Z,10.49
2017-12-16T11:54:34.055Z,10.51
2017-12-16T11:55:44.127Z,10.59
2017-12-16T11:56:53.657Z,10.57
2017-12-16T11:58:03.444Z,10.49
2017-12-16T11:59:12.974Z,10.63
2017-12-16T12:00:23.033Z,10.63
2017-12-16T12:01:33.619Z,10.63
2017-12-16T12:02:43.419Z,10.65
2017-12-16T12:03:53.476Z,10.67
2017-12-16T12:05:03.286Z,10.72
2017-12-16T12:06:13.353Z,10.58
2017-12-16T12:07:23.959Z,10.7
2017-12-16T12:08:34.064Z,10.66
2017-12-16T12:09:44.164Z,10.79
2017-12-16T12:10:54.234Z,10.76
2017-12-16T12:12:05.222Z,10.8
2017-12-16T12:13:15.310Z,10.91
2017-12-16T12:14:25.354Z,10.8
2017-12-16T12:15:35.486Z,10.85
2017-12-16T12:16:45.534Z,10.9
2017-12-16T12:17:55.338Z,10.77
2017-12-16T12:19:05.407Z,10.91
2017-12-16T12:20:15.499Z,10.77
2017-12-16T12:21:25.044Z,10.91
2017-12-16T12:22:34.852Z,10.8
2017-12-16T12:23:44.389Z,10.8
2017-12-16T12:24:54.463Z,10.87
2017-12-16T12:26:04.258Z,10.85
2017-12-16T12:27:14.060Z,10.8
2017-12-16T12:28:25.526Z,10.87
2017-12-16T12:29:35.588Z,10.88
2017-12-16T12:30:45.130Z,10.8
2017-12-16T12:31:55.195Z,10.84
2017-12-16T12:33:05.321Z,10.83
2017-12-16T12:34:15.385Z,11.02
2017-12-16T12:35:25.463Z,11.06
2017-12-16T12:36:36.734Z,11.1
2017-12-16T12:37:46.783Z,11.12
2017-12-16T12:38:56.582Z,11.1
2017-12-16T12:40:06.363Z,11.13
2017-12-16T12:41:16.435Z,11.18
2017-12-16T12:42:26.541Z,11.2
2017-12-16T12:43:36.614Z,11.27
2017-12-16T12:44:46.682Z,11.24
2017-12-16T12:45:56.497Z,11.28
2017-12-16T12:47:06.559Z,11.3
2017-12-16T12:48:16.372Z,11.18
2017-12-16T12:49:26.437Z,11.09
2017-12-16T12:50:36.087Z,10.91
2017-12-16T12:51:46.158Z,11.02
2017-12-16T12:52:55.958Z,10.85
2017-12-16T12:54:05.826Z,10.84
2017-12-16T12:55:15.882Z,10.79
2017-12-16T12:56:25.482Z,10.77
2017-12-16T12:57:35.285Z,10.8
2017-12-16T12:58:44.837Z,10.88
2017-12-16T12:59:54.895Z,10.87
2017-12-16T13:01:04.958Z,10.84
2017-12-16T13:02:15.087Z,10.83
2017-12-16T13:03:25.672Z,10.9
2017-12-16T13:04:35.761Z,10.79
2017-12-16T13:05:45.813Z,10.79
2017-12-16T13:06:55.894Z,10.76
2017-12-16T13:08:06.011Z,10.8
2017-12-16T13:09:15.819Z,10.73
2017-12-16T13:10:25.888Z,10.76
2017-12-16T13:11:35.945Z,10.9
2017-12-16T13:12:45.993Z,10.85
2017-12-16T13:13:55.064Z,10.87
2017-12-16T13:15:05.835Z,10.88
2017-12-16T13:16:15.890Z,10.91
2017-12-16T13:17:25.982Z,10.91
2017-12-16T13:18:36.045Z,10.83
2017-12-16T13:19:45.633Z,10.79
2017-12-16T13:20:55.429Z,10.83
2017-12-16T13:22:05.222Z,10.88
2017-12-16T13:23:15.042Z,10.83
2017-12-16T13:24:25.099Z,10.77
2017-12-16T13:25:35.152Z,10.75
2017-12-16T13:26:45.209Z,10.66
2017-12-16T13:27:55.265Z,10.66
2017-12-16T13:29:05.059Z,10.67
2017-12-16T13:30:14.869Z,10.58
2017-12-16T13:31:24.993Z,10.69
2017-12-16T13:32:34.807Z,10.72
2017-12-16T13:33:44.655Z,10.66
2017-12-16T13:34:54.440Z,10.7
2017-12-16T13:36:04.504Z,10.65
2017-12-16T13:37:14.557Z,10.59
2017-12-16T13:38:24.370Z,10.55
2017-12-16T13:39:34.436Z,10.58
2017-12-16T13:40:44.527Z,10.39
2017-12-16T13:41:54.590Z,10.33
2017-12-16T13:43:05.004Z,10.31
2017-12-16T13:44:15.074Z,10.28
2017-12-16T13:45:24.919Z,10.2
2017-12-16T13:46:34.725Z,10.23
2017-12-16T13:47:44.921Z,10.23
2017-12-16T13:48:54.996Z,10.25
2017-12-16T13:50:04.793Z,10.21
2017-12-16T13:51:14.343Z,10.21
2017-12-16T13:52:24.410Z,10.29
2017-12-16T13:53:34.499Z,10.41
2017-12-16T13:54:44.628Z,10.65
2017-12-16T13:55:54.695Z,10.65
2017-12-16T13:57:04.768Z,10.69
2017-12-16T13:58:14.944Z,10.63
2017-12-16T13:59:24.742Z,10.57
2017-12-16T14:00:34.970Z,10.58
2017-12-16T14:01:45.136Z,10.63
2017-12-16T14:02:55.226Z,10.58
2017-12-16T14:04:05.395Z,10.61
2017-12-16T14:05:15.194Z,10.69
2017-12-16T14:06:25.049Z,10.63
2017-12-16T14:07:35.116Z,10.57
2017-12-16T14:08:44.796Z,10.39
2017-12-16T14:09:54.936Z,10.55
2017-12-16T14:11:04.735Z,10.42
2017-12-16T14:12:16.362Z,10.38
2017-12-16T14:13:26.443Z,10.42
2017-12-16T14:14:37.236Z,10.39
2017-12-16T14:15:47.334Z,10.28
2017-12-16T14:16:57.404Z,10.23
2017-12-16T14:18:07.403Z,10.08
2017-12-16T14:19:18.860Z,9.92
2017-12-16T14:20:28.387Z,9.85
2017-12-16T14:21:43.821Z,9.84
2017-12-16T14:22:53.738Z,9.8
2017-12-16T14:24:04.356Z,9.71
2017-12-16T14:25:13.917Z,9.66
2017-12-16T14:26:23.753Z,9.64
2017-12-16T14:27:33.848Z,9.71
2017-12-16T14:28:43.922Z,9.57
2017-12-16T14:29:53.728Z,9.56
2017-12-16T14:31:03.810Z,9.6
2017-12-16T14:32:13.369Z,9.55
2017-12-16T14:33:23.453Z,9.41
2017-12-16T14:34:33.555Z,9.42
2017-12-16T14:35:43.627Z,9.44
2017-12-16T14:36:53.429Z,9.37
2017-12-16T14:38:03.485Z,9.24
2017-12-16T14:39:13.748Z,9.2
2017-12-16T14:40:23.556Z,9.27
2017-12-16T14:41:33.379Z,9.26
2017-12-16T14:42:43.194Z,9.23
2017-12-16T14:43:53.001Z,9.14
2017-12-16T14:45:02.803Z,9.14
2017-12-16T14:46:12.873Z,9.12
2017-12-16T14:47:22.730Z,9.04
2017-12-16T14:48:32.804Z,9.01
2017-12-16T14:49:42.854Z,8.98
2017-12-16T14:50:54.031Z,8.94
2017-12-16T14:52:04.075Z,8.87
2017-12-16T14:53:13.928Z,8.79
2017-12-16T14:54:23.711Z,8.82
2017-12-16T14:55:33.255Z,8.74
2017-12-16T14:56:43.310Z,8.76
2017-12-16T14:57:52.916Z,8.64
2017-12-16T14:59:03.206Z,8.58
2017-12-16T15:00:14.431Z,8.53
2017-12-16T15:01:28.023Z,8.58
2017-12-16T15:02:37.947Z,8.47
2017-12-16T15:03:48.572Z,8.5
2017-12-16T15:04:59.256Z,8.42
2017-12-16T15:06:09.323Z,8.42
2017-12-16T15:07:19.388Z,8.39
2017-12-16T15:08:29.464Z,8.35
2017-12-16T15:09:39.536Z,8.31
2017-12-16T15:10:49.663Z,8.29
2017-12-16T15:11:59.478Z,8.26
2017-12-16T15:13:09.545Z,8.29
2017-12-16T15:14:21.183Z,8.24
2017-12-16T15:15:31.248Z,8.19
2017-12-16T15:16:41.504Z,8.19
2017-12-16T15:17:51.577Z,8.11
2017-12-16T15:19:03.799Z,8.07
2017-12-16T15:20:13.606Z,8.1
2017-12-16T15:21:23.694Z,8.01
2017-12-16T15:22:33.520Z,8.04
2017-12-16T15:23:43.607Z,8.06
2017-12-16T15:24:52.897Z,7.98
2017-12-16T15:26:03.017Z,7.98
2017-12-16T15:27:12.562Z,7.98
2017-12-16T15:28:22.673Z,7.91
2017-12-16T15:29:32.757Z,7.88
2017-12-16T15:30:42.801Z,7.8
2017-12-16T15:31:52.598Z,7.85
2017-12-16T15:33:02.418Z,7.82
2017-12-16T15:34:12.219Z,7.82
2017-12-16T15:35:22.038Z,7.86
2017-12-16T15:36:31.829Z,7.8
2017-12-16T15:37:41.421Z,7.86
2017-12-16T15:38:50.965Z,7.78
2017-12-16T15:40:00.784Z,7.88
2017-12-16T15:41:10.613Z,7.78
2017-12-16T15:42:20.660Z,7.82
2017-12-16T15:43:30.475Z,7.85
2017-12-16T15:44:40.283Z,7.85
2017-12-16T15:45:50.366Z,7.78
2017-12-16T15:47:00.453Z,7.89
2017-12-16T15:48:10.571Z,7.93
2017-12-16T15:49:21.405Z,7.96
2017-12-16T15:50:31.492Z,7.92
2017-12-16T15:51:41.566Z,7.95
2017-12-16T15:52:51.723Z,7.93
2017-12-16T15:54:01.630Z,7.99
2017-12-16T15:55:12.468Z,7.95
2017-12-16T15:56:22.008Z,7.99